createdAt,value
2023-12-05T00:00:21.801Z,99909.03
2023-12-05T00:02:24.341Z,99906.34
2023-12-05T00:04:26.964Z,99896.63
2023-12-05T00:06:29.657Z,99898.41
2023-12-05T00:08:32.065Z,99901.09
2023-12-05T00:10:34.573Z,99894.88
2023-12-05T00:12:37.358Z,99882.50
2023-12-05T00:14:39.839Z,99872.78
2023-12-05T00:16:42.509Z,99868.34
2023-12-05T00:18:48.225Z,99867.47
2023-12-05T00:20:50.738Z,99875.41
2023-12-05T00:22:53.316Z,99864.78
2023-12-05T00:24:55.947Z,99863.00
2023-12-05T00:26:58.505Z,99865.69
2023-12-05T00:29:01.147Z,99861.28
2023-12-05T00:31:03.796Z,99868.34
2023-12-05T00:33:06.346Z,99875.41
2023-12-05T00:35:09.141Z,99878.09
2023-12-05T00:37:11.735Z,99884.28
2023-12-05T00:39:14.101Z,99871.91
2023-12-05T00:41:16.709Z,99865.69
2023-12-05T00:43:19.266Z,99864.81
2023-12-05T00:45:22.390Z,99874.56
2023-12-05T00:47:24.930Z,99864.81
2023-12-05T00:49:27.748Z,99864.84
2023-12-05T00:51:30.262Z,99858.63
2023-12-05T00:53:32.756Z,99860.41
2023-12-05T00:55:37.182Z,99863.94
2023-12-05T00:57:39.934Z,99852.47
2023-12-05T00:59:42.374Z,99863.06
2023-12-05T01:01:45.081Z,99852.44
2023-12-05T01:03:48.144Z,99845.38
2023-12-05T01:05:50.871Z,99832.13
2023-12-05T01:07:53.371Z,99829.47
2023-12-05T01:09:56.464Z,99831.22
2023-12-05T01:11:59.589Z,99835.63
2023-12-05T01:14:02.099Z,99821.53
2023-12-05T01:16:05.687Z,99825.06
2023-12-05T01:18:08.221Z,99835.63
2023-12-05T01:20:13.892Z,99830.34
2023-12-05T01:22:16.367Z,99820.66
2023-12-05T01:24:18.868Z,99819.75
2023-12-05T01:26:21.413Z,99820.59
2023-12-05T01:28:23.879Z,99825.03
2023-12-05T01:30:26.618Z,99827.69
2023-12-05T01:32:29.263Z,99831.22
2023-12-05T01:34:32.667Z,99814.41
2023-12-05T01:36:35.320Z,99814.41
2023-12-05T01:38:37.916Z,99824.13
2023-12-05T01:40:40.447Z,99834.72
2023-12-05T01:42:43.174Z,99834.72
2023-12-05T01:44:45.838Z,99827.69
2023-12-05T01:46:48.546Z,99825.03
2023-12-05T01:48:51.395Z,99836.50
2023-12-05T01:50:55.344Z,99818.81
2023-12-05T01:53:01.140Z,99825.03
2023-12-05T01:55:03.988Z,99817.91
2023-12-05T01:57:08.154Z,99821.44
2023-12-05T01:59:11.379Z,99823.22
2023-12-05T02:01:17.073Z,99811.75
2023-12-05T02:03:20.150Z,99808.22
2023-12-05T02:05:23.424Z,99807.28
2023-12-05T02:07:26.572Z,99807.28
2023-12-05T02:09:29.242Z,99801.97
2023-12-05T02:11:34.073Z,99802.88
2023-12-05T02:13:36.589Z,99803.78
2023-12-05T02:15:39.314Z,99801.09
2023-12-05T02:18:13.152Z,99796.69
2023-12-05T02:20:21.930Z,99796.66
2023-12-05T02:22:36.249Z,99794.88
2023-12-05T02:24:57.111Z,99790.44
2023-12-05T02:27:32.470Z,99789.59
2023-12-05T02:29:35.066Z,99795.81
2023-12-05T02:31:37.499Z,99805.53
2023-12-05T02:33:41.225Z,99796.69
2023-12-05T02:35:44.035Z,99800.22
2023-12-05T02:38:12.141Z,99794.91
2023-12-05T02:40:18.634Z,99786.91
2023-12-05T02:42:24.723Z,99793.16
2023-12-05T02:44:42.476Z,99789.63
2023-12-05T02:46:46.554Z,99784.28
2023-12-05T02:48:51.612Z,99785.16
2023-12-05T02:50:54.629Z,99784.31
2023-12-05T02:52:57.908Z,99788.69
2023-12-05T02:55:00.327Z,99789.56
2023-12-05T02:57:03.515Z,99778.03
2023-12-05T02:59:06.017Z,99778.06
2023-12-05T03:01:09.086Z,99765.72
2023-12-05T03:03:11.685Z,99763.91
2023-12-05T03:05:14.655Z,99759.56
2023-12-05T03:07:17.046Z,99756.88
2023-12-05T03:09:19.685Z,99763.06
2023-12-05T03:11:22.193Z,99768.34
2023-12-05T03:13:24.749Z,99772.78
2023-12-05T03:15:27.302Z,99768.41
2023-12-05T03:17:29.862Z,99768.38
2023-12-05T03:19:32.465Z,99757.75
2023-12-05T03:21:35.783Z,99763.03
2023-12-05T03:23:38.486Z,99762.16
2023-12-05T03:25:41.251Z,99755.94
2023-12-05T03:27:43.986Z,99759.47
2023-12-05T03:29:46.545Z,99747.09
2023-12-05T03:31:49.123Z,99740.91
2023-12-05T03:33:51.666Z,99749.75
2023-12-05T03:35:54.234Z,99752.44
2023-12-05T03:37:57.388Z,99755.94
2023-12-05T03:40:00.314Z,99748.03
2023-12-05T03:42:02.799Z,99744.44
2023-12-05T03:44:05.585Z,99748.88
2023-12-05T03:46:08.398Z,99746.22
2023-12-05T03:48:11.072Z,99742.69
2023-12-05T03:50:13.612Z,99739.16
2023-12-05T03:52:16.242Z,99738.31
2023-12-05T03:54:18.676Z,99740.03
2023-12-05T03:56:21.290Z,99741.75
2023-12-05T03:58:23.671Z,99748.81
2023-12-05T04:00:26.756Z,99754.13
2023-12-05T04:02:29.269Z,99751.47
2023-12-05T04:04:32.716Z,99759.47
2023-12-05T04:06:35.235Z,99747.97
2023-12-05T04:08:37.864Z,99752.44
2023-12-05T04:10:40.422Z,99749.72
2023-12-05T04:12:42.909Z,99754.09
2023-12-05T04:14:45.467Z,99747.06
2023-12-05T04:16:47.987Z,99745.31
2023-12-05T04:18:50.500Z,99752.41
2023-12-05T04:20:53.074Z,99740.84
2023-12-05T04:22:55.508Z,99737.34
2023-12-05T04:24:58.060Z,99734.66
2023-12-05T04:27:00.541Z,99724.88
2023-12-05T04:29:03.135Z,99724.88
2023-12-05T04:31:07.288Z,99721.38
2023-12-05T04:33:09.846Z,99726.69
2023-12-05T04:35:12.305Z,99717.78
2023-12-05T04:37:15.422Z,99727.59
2023-12-05T04:39:18.426Z,99735.56
2023-12-05T04:41:21.155Z,99732.88
2023-12-05T04:43:23.914Z,99727.59
2023-12-05T04:45:26.762Z,99733.75
2023-12-05T04:47:30.864Z,99731.94
2023-12-05T04:49:35.094Z,99723.09
2023-12-05T04:51:37.828Z,99724.88
2023-12-05T04:53:41.764Z,99732.00
2023-12-05T04:55:44.467Z,99725.69
2023-12-05T04:57:46.934Z,99719.50
2023-12-05T04:59:49.501Z,99722.19
2023-12-05T05:01:52.097Z,99725.75
2023-12-05T05:03:54.834Z,99719.50
2023-12-05T05:05:57.516Z,99711.53
2023-12-05T05:08:00.797Z,99723.13
2023-12-05T05:10:03.184Z,99716.88
2023-12-05T05:12:10.232Z,99711.53
2023-12-05T05:14:12.759Z,99713.31
2023-12-05T05:16:15.313Z,99711.56
2023-12-05T05:18:18.269Z,99706.22
2023-12-05T05:20:21.793Z,99714.28
2023-12-05T05:22:24.247Z,99702.69
2023-12-05T05:24:26.981Z,99712.47
2023-12-05T05:26:29.508Z,99714.22
2023-12-05T05:28:33.041Z,99711.53
2023-12-05T05:30:35.542Z,99714.16
2023-12-05T05:32:38.255Z,99731.88
2023-12-05T05:34:40.850Z,99732.72
2023-12-05T05:36:43.280Z,99727.44
2023-12-05T05:38:46.010Z,99726.53
2023-12-05T05:40:49.268Z,99722.13
2023-12-05T05:42:51.767Z,99726.53
2023-12-05T05:44:54.397Z,99718.53
2023-12-05T05:46:57.716Z,99719.44
2023-12-05T05:49:00.348Z,99726.50
2023-12-05T05:51:02.960Z,99722.97
2023-12-05T05:53:05.430Z,99726.53
2023-12-05T05:55:08.908Z,99722.13
2023-12-05T05:57:11.474Z,99736.28
2023-12-05T05:59:13.989Z,99735.38
2023-12-05T06:01:16.635Z,99733.56
2023-12-05T06:03:19.263Z,99725.59
2023-12-05T06:05:21.838Z,99722.09
2023-12-05T06:07:25.136Z,99732.72
2023-12-05T06:09:27.611Z,99735.34
2023-12-05T06:11:30.229Z,99736.28
2023-12-05T06:13:32.686Z,99733.66
2023-12-05T06:15:35.222Z,99736.28
2023-12-05T06:17:38.008Z,99726.44
2023-12-05T06:19:40.409Z,99725.56
2023-12-05T06:21:42.897Z,99725.53
2023-12-05T06:23:45.570Z,99725.47
2023-12-05T06:25:48.024Z,99719.25
2023-12-05T06:27:50.653Z,99721.88
2023-12-05T06:29:53.268Z,99721.03
2023-12-05T06:31:55.790Z,99725.50
2023-12-05T06:33:58.364Z,99721.09
2023-12-05T06:36:00.943Z,99713.16
2023-12-05T06:38:03.354Z,99707.84
2023-12-05T06:40:06.569Z,99707.81
2023-12-05T06:42:09.027Z,99700.69
2023-12-05T06:44:11.539Z,99703.31
2023-12-05T06:46:14.103Z,99715.78
2023-12-05T06:48:17.274Z,99708.72
2023-12-05T06:50:19.880Z,99715.78
2023-12-05T06:52:22.392Z,99715.81
2023-12-05T06:54:25.025Z,99705.25
2023-12-05T06:56:27.563Z,99712.22
2023-12-05T06:58:29.997Z,99708.66
2023-12-05T07:00:32.620Z,99713.91
2023-12-05T07:02:35.164Z,99711.25
2023-12-05T07:04:37.976Z,99701.47
2023-12-05T07:06:42.199Z,99705.88
2023-12-05T07:08:45.099Z,99708.50
2023-12-05T07:10:47.636Z,99713.84
2023-12-05T07:12:50.389Z,99702.31
2023-12-05T07:14:52.891Z,99712.97
2023-12-05T07:16:55.550Z,99709.38
2023-12-05T07:18:58.520Z,99708.53
2023-12-05T07:21:01.906Z,99704.88
2023-12-05T07:23:04.410Z,99702.25
2023-12-05T07:25:07.476Z,99709.41
2023-12-05T07:27:10.311Z,99717.28
2023-12-05T07:29:12.956Z,99712.81
2023-12-05T07:31:15.586Z,99706.50
2023-12-05T07:33:18.188Z,99719.91
2023-12-05T07:35:20.720Z,99712.78
2023-12-05T07:37:24.352Z,99709.13
2023-12-05T07:39:27.985Z,99707.38
2023-12-05T07:41:30.432Z,99708.22
2023-12-05T07:43:32.902Z,99708.19
2023-12-05T07:45:35.908Z,99702.91
2023-12-05T07:47:38.442Z,99703.81
2023-12-05T07:49:45.311Z,99691.31
2023-12-05T07:51:49.856Z,99687.75
2023-12-05T07:53:52.380Z,99675.47
2023-12-05T07:55:55.007Z,99673.53
2023-12-05T07:57:57.487Z,99680.72
2023-12-05T08:00:01.340Z,99670.81
2023-12-05T08:02:05.676Z,99674.50
2023-12-05T08:04:09.846Z,99676.13
2023-12-05T08:06:12.369Z,99669.88
2023-12-05T08:08:14.888Z,99675.25
2023-12-05T08:10:18.630Z,99684.06
2023-12-05T08:12:21.261Z,99675.16
2023-12-05T08:14:23.764Z,99694.53
2023-12-05T08:16:26.336Z,99691.00
2023-12-05T08:18:28.820Z,99685.59
2023-12-05T08:20:32.089Z,99690.03
2023-12-05T08:22:34.849Z,99689.13
2023-12-05T08:24:37.416Z,99685.53
2023-12-05T08:26:40.030Z,99688.16
2023-12-05T08:28:42.481Z,99688.28
2023-12-05T08:30:44.929Z,99692.69
2023-12-05T08:32:47.434Z,99692.59
2023-12-05T08:34:50.699Z,99694.31
2023-12-05T08:36:53.301Z,99693.34
2023-12-05T08:38:55.838Z,99695.13
2023-12-05T08:40:58.540Z,99688.06
2023-12-05T08:43:00.968Z,99692.53
2023-12-05T08:45:03.550Z,99690.69
2023-12-05T08:47:06.140Z,99681.78
2023-12-05T08:49:08.574Z,99682.56
2023-12-05T08:51:11.977Z,99682.50
2023-12-05T08:53:15.160Z,99686.22
2023-12-05T08:55:18.107Z,99685.31
2023-12-05T08:57:20.599Z,99687.81
2023-12-05T08:59:23.106Z,99684.28
2023-12-05T09:01:25.728Z,99690.53
2023-12-05T09:03:28.576Z,99682.50
2023-12-05T09:05:31.133Z,99685.06
2023-12-05T09:07:34.035Z,99696.47
2023-12-05T09:09:36.921Z,99696.47
2023-12-05T09:11:40.228Z,99691.19
2023-12-05T09:13:43.424Z,99693.75
2023-12-05T09:15:46.092Z,99692.84
2023-12-05T09:17:48.826Z,99685.66
2023-12-05T09:19:52.260Z,99698.13
2023-12-05T09:21:55.074Z,99698.16
2023-12-05T09:23:57.809Z,99686.53
2023-12-05T09:26:00.920Z,99695.56
2023-12-05T09:28:03.887Z,99685.66
2023-12-05T09:30:07.318Z,99683.75
2023-12-05T09:32:09.840Z,99688.97
2023-12-05T09:34:12.406Z,99678.34
2023-12-05T09:36:14.937Z,99685.41
2023-12-05T09:38:18.604Z,99675.66
2023-12-05T09:40:21.556Z,99674.75
2023-12-05T09:42:27.520Z,99675.66
2023-12-05T09:44:32.798Z,99672.00
2023-12-05T09:46:47.279Z,99663.16
2023-12-05T09:48:59.524Z,99665.88
2023-12-05T09:51:03.481Z,99668.47
2023-12-05T09:53:06.963Z,99663.13
2023-12-05T09:55:09.818Z,99661.31
2023-12-05T09:57:15.782Z,99645.34
2023-12-05T09:59:21.901Z,99646.19
2023-12-05T10:01:25.560Z,99640.03
2023-12-05T10:03:30.031Z,99638.25
2023-12-05T10:05:34.051Z,99638.31
2023-12-05T10:07:36.883Z,99634.63
2023-12-05T10:09:43.685Z,99631.06
2023-12-05T10:11:47.158Z,99618.59
2023-12-05T10:13:49.553Z,99623.97
2023-12-05T10:15:52.606Z,99623.88
2023-12-05T10:17:55.753Z,99622.06
2023-12-05T10:19:58.302Z,99623.59
2023-12-05T10:22:01.174Z,99613.09
2023-12-05T10:24:03.858Z,99614.13
2023-12-05T10:26:06.782Z,99616.56
2023-12-05T10:28:10.280Z,99612.06
2023-12-05T10:30:14.197Z,99604.75
2023-12-05T10:32:17.986Z,99608.22
2023-12-05T10:34:20.413Z,99602.94
2023-12-05T10:36:23.156Z,99600.22
2023-12-05T10:38:25.690Z,99599.34
2023-12-05T10:40:28.466Z,99594.84
2023-12-05T10:42:31.361Z,99598.28
2023-12-05T10:44:40.974Z,99599.25
2023-12-05T10:46:43.988Z,99596.56
2023-12-05T10:48:46.847Z,99594.00
2023-12-05T10:50:50.123Z,99595.53
2023-12-05T10:52:53.482Z,99598.09
2023-12-05T10:55:00.050Z,99587.34
2023-12-05T10:57:02.826Z,99597.34
2023-12-05T10:59:07.429Z,99584.00
2023-12-05T11:01:14.866Z,99582.00
2023-12-05T11:03:17.882Z,99580.97
2023-12-05T11:05:20.782Z,99580.09
2023-12-05T11:07:23.207Z,99583.75
2023-12-05T11:09:26.391Z,99585.53
2023-12-05T11:11:31.534Z,99580.97
2023-12-05T11:13:36.100Z,99576.56
2023-12-05T11:15:42.292Z,99578.31
2023-12-05T11:17:54.408Z,99575.00
2023-12-05T11:20:18.112Z,99576.16
2023-12-05T11:22:31.640Z,99573.06
2023-12-05T11:24:57.939Z,99570.25
2023-12-05T11:27:33.075Z,99561.28
2023-12-05T11:29:52.728Z,99568.34
2023-12-05T11:32:24.164Z,99564.81
2023-12-05T11:34:49.941Z,99568.25
2023-12-05T11:37:05.212Z,99567.31
2023-12-05T11:39:08.358Z,99564.97
2023-12-05T11:41:15.688Z,99572.78
2023-12-05T11:43:18.308Z,99565.50
2023-12-05T11:45:24.192Z,99575.25
2023-12-05T11:47:30.081Z,99567.44
2023-12-05T11:49:39.705Z,99567.31
2023-12-05T11:51:42.308Z,99551.09
2023-12-05T11:53:44.901Z,99562.53
2023-12-05T11:55:50.646Z,99553.53
2023-12-05T11:57:53.599Z,99550.81
2023-12-05T11:59:57.643Z,99559.56
2023-12-05T12:02:00.681Z,99553.31
2023-12-05T12:04:18.625Z,99552.41
2023-12-05T12:06:23.025Z,99543.44
2023-12-05T12:08:25.672Z,99544.38
2023-12-05T12:10:28.398Z,99535.44
2023-12-05T12:12:31.000Z,99544.31
2023-12-05T12:14:33.710Z,99543.41
2023-12-05T12:16:36.209Z,99539.81
2023-12-05T12:18:44.009Z,99540.59
2023-12-05T12:20:53.721Z,99536.13
2023-12-05T12:22:56.537Z,99537.00
2023-12-05T12:25:15.327Z,99535.34
2023-12-05T12:27:17.948Z,99532.56
2023-12-05T12:29:21.190Z,99536.97
2023-12-05T12:31:27.608Z,99526.28
2023-12-05T12:33:40.781Z,99526.16
2023-12-05T12:35:43.830Z,99525.28
2023-12-05T12:37:52.629Z,99526.19
2023-12-05T12:39:55.923Z,99517.66
2023-12-05T12:41:59.797Z,99519.22
2023-12-05T12:44:06.891Z,99518.25
2023-12-05T12:46:09.914Z,99513.75
2023-12-05T12:48:12.443Z,99510.97
2023-12-05T12:50:15.333Z,99508.13
2023-12-05T12:52:18.070Z,99513.34
2023-12-05T12:54:21.387Z,99509.72
2023-12-05T12:56:25.377Z,99505.31
2023-12-05T12:58:44.296Z,99507.91
2023-12-05T13:00:48.805Z,99506.88
2023-12-05T13:02:56.361Z,99502.47
2023-12-05T13:04:59.617Z,99513.25
2023-12-05T13:07:02.447Z,99509.53
2023-12-05T13:09:27.142Z,99505.03
2023-12-05T13:11:30.206Z,99498.75
2023-12-05T13:13:32.848Z,99507.56
2023-12-05T13:15:35.543Z,99506.69
2023-12-05T13:17:41.223Z,99504.84
2023-12-05T13:19:43.938Z,99513.19
2023-12-05T13:21:46.579Z,99514.03
2023-12-05T13:23:49.180Z,99512.19
2023-12-05T13:25:52.131Z,99518.16
2023-12-05T13:27:55.396Z,99518.91
2023-12-05T13:29:58.730Z,99517.97
2023-12-05T13:32:01.797Z,99513.47
2023-12-05T13:34:04.949Z,99511.63
2023-12-05T13:36:08.117Z,99515.19
2023-12-05T13:38:11.042Z,99522.31
2023-12-05T13:40:13.570Z,99525.09
2023-12-05T13:42:16.596Z,99518.03
2023-12-05T13:44:19.675Z,99532.28
2023-12-05T13:46:25.143Z,99533.59
2023-12-05T13:48:27.800Z,99532.84
2023-12-05T13:50:30.411Z,99539.09
2023-12-05T13:52:33.148Z,99538.97
2023-12-05T13:54:35.865Z,99540.66
2023-12-05T13:56:38.501Z,99544.09
2023-12-05T13:58:41.142Z,99542.22
2023-12-05T14:00:43.714Z,99540.34
2023-12-05T14:02:46.449Z,99545.72
2023-12-05T14:04:49.192Z,99553.72
2023-12-05T14:06:52.036Z,99556.41
2023-12-05T14:08:54.712Z,99543.94
2023-12-05T14:10:57.436Z,99552.09
2023-12-05T14:13:00.022Z,99546.75
2023-12-05T14:15:03.021Z,99548.50
2023-12-05T14:17:05.652Z,99545.88
2023-12-05T14:19:08.453Z,99549.50
2023-12-05T14:21:10.979Z,99542.41
2023-12-05T14:23:13.656Z,99548.75
2023-12-05T14:25:16.978Z,99544.19
2023-12-05T14:27:20.602Z,99536.19
2023-12-05T14:29:24.499Z,99545.25
2023-12-05T14:31:27.158Z,99546.28
2023-12-05T14:33:29.901Z,99538.09
2023-12-05T14:35:32.761Z,99541.59
2023-12-05T14:37:35.757Z,99546.88
2023-12-05T14:39:39.384Z,99545.03
2023-12-05T14:41:42.014Z,99540.72
2023-12-05T14:43:44.436Z,99534.53
2023-12-05T14:45:47.022Z,99529.34
2023-12-05T14:47:49.686Z,99529.31
2023-12-05T14:49:52.255Z,99539.31
2023-12-05T14:51:54.714Z,99528.44
2023-12-05T14:53:58.161Z,99519.53
2023-12-05T14:56:00.626Z,99524.97
2023-12-05T14:58:03.408Z,99531.28
2023-12-05T15:00:08.612Z,99525.78
2023-12-05T15:02:11.053Z,99524.91
2023-12-05T15:04:13.577Z,99524.06
2023-12-05T15:06:16.029Z,99525.94
2023-12-05T15:08:19.388Z,99525.75
2023-12-05T15:10:22.011Z,99522.16
2023-12-05T15:12:24.629Z,99516.78
2023-12-05T15:14:27.065Z,99523.81
2023-12-05T15:16:29.679Z,99518.44
2023-12-05T15:18:32.242Z,99520.25
2023-12-05T15:20:35.407Z,99518.53
2023-12-05T15:22:38.881Z,99516.75
2023-12-05T15:24:41.354Z,99517.72
2023-12-05T15:26:43.827Z,99520.81
2023-12-05T15:28:46.999Z,99517.25
2023-12-05T15:30:50.031Z,99518.97
2023-12-05T15:32:54.819Z,99522.59
2023-12-05T15:34:58.851Z,99525.44
2023-12-05T15:37:02.033Z,99520.09
2023-12-05T15:39:04.618Z,99529.91
2023-12-05T15:41:14.090Z,99529.06
2023-12-05T15:43:16.611Z,99528.19
2023-12-05T15:45:19.229Z,99523.09
2023-12-05T15:47:22.216Z,99530.88
2023-12-05T15:49:25.067Z,99523.53
2023-12-05T15:51:27.654Z,99526.88
2023-12-05T15:53:30.062Z,99525.00
2023-12-05T15:55:35.810Z,99519.72
2023-12-05T15:57:38.397Z,99519.84
2023-12-05T15:59:40.998Z,99519.84
2023-12-05T16:01:44.103Z,99513.50
2023-12-05T16:03:47.982Z,99515.19
2023-12-05T16:05:50.574Z,99519.66
2023-12-05T16:07:53.623Z,99520.44
2023-12-05T16:09:56.292Z,99522.22
2023-12-05T16:11:59.834Z,99516.00
2023-12-05T16:14:02.286Z,99521.53
2023-12-05T16:16:05.097Z,99529.53
2023-12-05T16:18:07.789Z,99524.06
2023-12-05T16:20:10.559Z,99522.25
2023-12-05T16:22:13.193Z,99522.13
2023-12-05T16:24:15.777Z,99522.13
2023-12-05T16:26:18.224Z,99523.88
2023-12-05T16:28:20.688Z,99520.31
2023-12-05T16:30:23.241Z,99515.75
2023-12-05T16:32:25.505Z,99525.56
2023-12-05T16:34:28.348Z,99522.91
2023-12-05T16:36:32.309Z,99521.09
2023-12-05T16:38:34.756Z,99515.66
2023-12-05T16:40:37.292Z,99511.19
2023-12-05T16:42:39.829Z,99509.31
2023-12-05T16:44:46.818Z,99503.06
2023-12-05T16:46:49.401Z,99506.69
2023-12-05T16:48:52.193Z,99510.19
2023-12-05T16:50:55.853Z,99504.00
2023-12-05T16:52:58.731Z,99510.16
2023-12-05T16:55:01.345Z,99506.56
2023-12-05T16:57:03.925Z,99505.66
2023-12-05T16:59:06.712Z,99516.38
2023-12-05T17:01:10.179Z,99504.00
2023-12-05T17:03:12.959Z,99502.94
2023-12-05T17:05:15.947Z,99503.63
2023-12-05T17:07:18.821Z,99506.31
2023-12-05T17:09:21.677Z,99507.41
2023-12-05T17:11:25.159Z,99506.59
2023-12-05T17:13:27.770Z,99504.69
2023-12-05T17:15:30.252Z,99502.88
2023-12-05T17:17:34.849Z,99495.59
2023-12-05T17:19:37.300Z,99498.25
2023-12-05T17:21:39.857Z,99490.16
2023-12-05T17:23:42.437Z,99492.00
2023-12-05T17:25:44.807Z,99499.97
2023-12-05T17:27:48.201Z,99489.53
2023-12-05T17:29:51.030Z,99497.34
2023-12-05T17:31:53.647Z,99493.72
2023-12-05T17:33:56.252Z,99493.72
2023-12-05T17:35:59.023Z,99490.91
2023-12-05T17:38:01.620Z,99494.44
2023-12-05T17:40:04.819Z,99496.13
2023-12-05T17:42:07.510Z,99494.34
2023-12-05T17:44:10.024Z,99495.38
2023-12-05T17:46:12.599Z,99490.91
2023-12-05T17:48:15.146Z,99491.81
2023-12-05T17:50:17.854Z,99491.13
2023-12-05T17:52:20.530Z,99488.56
2023-12-05T17:54:23.768Z,99485.84
2023-12-05T17:56:26.637Z,99484.16
2023-12-05T17:58:29.864Z,99483.94
2023-12-05T18:00:33.391Z,99485.13
2023-12-05T18:02:36.908Z,99484.13
2023-12-05T18:04:40.396Z,99487.56
2023-12-05T18:06:43.101Z,99487.69
2023-12-05T18:08:45.707Z,99471.84
2023-12-05T18:10:48.170Z,99474.50
2023-12-05T18:12:51.228Z,99478.63
2023-12-05T18:14:54.065Z,99456.38
2023-12-05T18:16:56.751Z,99460.78
2023-12-05T18:19:00.972Z,99460.88
2023-12-05T18:21:03.909Z,99460.06
2023-12-05T18:23:06.705Z,99460.09
2023-12-05T18:25:09.900Z,99453.06
2023-12-05T18:27:15.380Z,99453.06
2023-12-05T18:29:17.869Z,99450.28
2023-12-05T18:31:24.641Z,99445.78
2023-12-05T18:33:27.433Z,99434.16
2023-12-05T18:35:30.023Z,99433.34
2023-12-05T18:37:32.520Z,99430.72
2023-12-05T18:39:35.177Z,99429.72
2023-12-05T18:41:37.666Z,99418.97
2023-12-05T18:43:41.144Z,99421.94
2023-12-05T18:45:43.788Z,99416.47
2023-12-05T18:47:46.589Z,99428.75
2023-12-05T18:49:49.080Z,99428.69
2023-12-05T18:51:51.604Z,99422.50
2023-12-05T18:53:56.960Z,99421.66
2023-12-05T18:56:01.190Z,99427.84
2023-12-05T18:58:04.459Z,99427.81
2023-12-05T19:00:09.880Z,99433.25
2023-12-05T19:02:12.443Z,99438.44
2023-12-05T19:04:14.962Z,99430.28
2023-12-05T19:06:18.265Z,99432.09
2023-12-05T19:08:21.372Z,99434.09
2023-12-05T19:10:24.231Z,99423.16
2023-12-05T19:12:26.793Z,99421.19
2023-12-05T19:14:30.287Z,99420.38
2023-12-05T19:16:34.806Z,99419.59
2023-12-05T19:18:39.248Z,99424.06
2023-12-05T19:20:41.942Z,99416.75
2023-12-05T19:22:44.829Z,99416.97
2023-12-05T19:24:47.663Z,99416.81
2023-12-05T19:26:55.447Z,99415.00
2023-12-05T19:28:58.865Z,99422.09
2023-12-05T19:31:01.454Z,99403.56
2023-12-05T19:33:04.279Z,99407.81
2023-12-05T19:35:10.949Z,99399.09
2023-12-05T19:37:13.605Z,99400.78
2023-12-05T19:39:18.405Z,99401.63
2023-12-05T19:41:20.954Z,99398.84
2023-12-05T19:43:23.565Z,99406.22
2023-12-05T19:45:29.755Z,99392.75
2023-12-05T19:47:33.921Z,99400.97
2023-12-05T19:49:36.580Z,99390.31
2023-12-05T19:51:39.387Z,99391.06
2023-12-05T19:53:41.901Z,99389.13
2023-12-05T19:55:49.125Z,99388.19
2023-12-05T19:57:52.098Z,99381.97
2023-12-05T19:59:54.753Z,99387.34
2023-12-05T20:01:57.273Z,99376.97
2023-12-05T20:03:59.841Z,99376.00
2023-12-05T20:06:02.546Z,99365.38
2023-12-05T20:08:06.917Z,99360.91
2023-12-05T20:10:10.569Z,99364.25
2023-12-05T20:12:13.152Z,99365.09
2023-12-05T20:14:16.124Z,99355.34
2023-12-05T20:16:19.253Z,99358.84
2023-12-05T20:18:22.104Z,99365.06
2023-12-05T20:20:24.641Z,99372.06
2023-12-05T20:22:29.660Z,99374.72
2023-12-05T20:24:32.255Z,99372.06
2023-12-05T20:26:34.792Z,99377.38
2023-12-05T20:28:37.603Z,99380.22
2023-12-05T20:30:40.143Z,99375.00
2023-12-05T20:32:42.741Z,99373.97
2023-12-05T20:34:48.462Z,99370.34
2023-12-05T20:36:50.974Z,99376.81
2023-12-05T20:38:53.569Z,99374.25
2023-12-05T20:41:57.994Z,99375.16
2023-12-05T20:44:00.710Z,99375.91
2023-12-05T20:46:05.562Z,99364.34
2023-12-05T20:48:14.806Z,99363.50
2023-12-05T20:50:17.776Z,99357.41
2023-12-05T20:52:20.730Z,99361.09
2023-12-05T20:54:23.424Z,99359.28
2023-12-05T20:56:26.032Z,99355.66
2023-12-05T20:58:28.642Z,99350.66
2023-12-05T21:00:31.356Z,99361.25
2023-12-05T21:02:35.423Z,99348.59
2023-12-05T21:04:38.176Z,99345.16
2023-12-05T21:06:49.885Z,99340.56
2023-12-05T21:09:11.008Z,99334.63
2023-12-05T21:11:16.113Z,99343.59
2023-12-05T21:13:18.741Z,99337.22
2023-12-05T21:15:21.558Z,99339.59
2023-12-05T21:17:24.480Z,99337.84
2023-12-05T21:19:27.144Z,99338.78
2023-12-05T21:21:30.185Z,99343.91
2023-12-05T21:23:35.292Z,99349.34
2023-12-05T21:25:38.152Z,99340.50
2023-12-05T21:27:40.776Z,99335.06
2023-12-05T21:29:43.422Z,99348.16
2023-12-05T21:31:46.034Z,99345.28
2023-12-05T21:33:48.722Z,99345.38
2023-12-05T21:35:51.585Z,99348.81
2023-12-05T21:37:54.041Z,99343.06
2023-12-05T21:39:56.735Z,99342.75
2023-12-05T21:41:59.309Z,99339.31
2023-12-05T21:44:01.919Z,99336.44
2023-12-05T21:46:04.576Z,99335.56
2023-12-05T21:48:07.433Z,99337.91
2023-12-05T21:50:10.514Z,99329.22
2023-12-05T21:52:12.981Z,99329.94
2023-12-05T21:54:15.571Z,99325.50
2023-12-05T21:56:19.067Z,99328.91
2023-12-05T21:58:22.045Z,99331.59
2023-12-05T22:00:25.730Z,99331.59
2023-12-05T22:02:28.523Z,99338.72
2023-12-05T22:04:34.018Z,99328.69
2023-12-05T22:06:36.830Z,99331.25
2023-12-05T22:08:39.402Z,99329.50
2023-12-05T22:10:41.952Z,99332.09
2023-12-05T22:12:44.529Z,99339.22
2023-12-05T22:14:47.066Z,99338.31
2023-12-05T22:16:49.662Z,99335.63
2023-12-05T22:18:52.753Z,99324.91
2023-12-05T22:20:55.369Z,99330.25
2023-12-05T22:22:57.916Z,99328.53
2023-12-05T22:25:00.621Z,99326.81
2023-12-05T22:27:03.510Z,99318.78
2023-12-05T22:29:08.237Z,99318.78
2023-12-05T22:31:13.713Z,99311.66
2023-12-05T22:33:16.329Z,99309.97
2023-12-05T22:35:18.802Z,99301.06
2023-12-05T22:37:21.720Z,99304.63
2023-12-05T22:39:25.344Z,99302.75
2023-12-05T22:41:27.946Z,99306.22
2023-12-05T22:43:32.460Z,99300.94
2023-12-05T22:45:36.120Z,99297.56
2023-12-05T22:47:39.147Z,99303.88
2023-12-05T22:49:45.094Z,99299.69
2023-12-05T22:51:47.789Z,99302.28
2023-12-05T22:53:50.355Z,99298.97
2023-12-05T22:55:52.869Z,99299.00
2023-12-05T22:57:55.338Z,99293.63
2023-12-05T22:59:57.853Z,99289.13
2023-12-05T23:02:00.548Z,99290.09
2023-12-05T23:04:03.020Z,99287.84
2023-12-05T23:06:05.749Z,99290.41
2023-12-05T23:08:08.316Z,99284.50
2023-12-05T23:10:11.037Z,99282.78
2023-12-05T23:12:13.482Z,99283.56
2023-12-05T23:14:16.142Z,99279.38
2023-12-05T23:16:19.215Z,99280.41
2023-12-05T23:18:21.920Z,99281.34
2023-12-05T23:20:25.152Z,99276.66
2023-12-05T23:22:27.474Z,99279.22
2023-12-05T23:24:29.714Z,99272.16
2023-12-05T23:26:31.900Z,99274.44
2023-12-05T23:28:35.198Z,99275.28
2023-12-05T23:30:37.994Z,99276.03
2023-12-05T23:32:40.251Z,99274.09
2023-12-05T23:34:43.103Z,99267.78
2023-12-05T23:36:45.212Z,99266.06
2023-12-05T23:38:47.427Z,99267.78
2023-12-05T23:40:49.524Z,99265.09
2023-12-05T23:42:51.843Z,99259.94
2023-12-05T23:44:53.945Z,99258.91
2023-12-05T23:46:56.074Z,99251.75
2023-12-05T23:48:58.432Z,99247.31
2023-12-05T23:51:00.550Z,99246.41
2023-12-05T23:53:03.213Z,99254.41
2023-12-05T23:55:06.014Z,99252.88
2023-12-05T23:57:08.962Z,99256.59
2023-12-05T23:59:11.298Z,99257.56
